Kongen — LCDE — position and weather

sailwx.info

Track history (hours):
 
Tides and Currents Weather Stations Pressure Air Temp Water Temp Dewpoint Dewpoint Depression Visibility Wind Speed Wind Dir Waves Ship Positions

Kongen

Last reported at 2015-Apr-01 12:30 UTC. Time now 2015-Apr-01 13:14 UTC.
Position N 59°55' E 010°44'.

Length 50 m; draft 3.2 m.

Type: Passenger vessel. MMSI: 258509000.

Date/timePositionNaut miles runAvg speedWind from/ knotsBaromVisibWave heightAir tempDewpointWater temp
2015-Apr-01 12:30N 59°55' E 010°44'0 0.0
2015-Apr-01 11:33N 59°55' E 010°44'0 0.0
2015-Apr-01 10:30N 59°55' E 010°44'0 0.0
2015-Apr-01 09:21N 59°55' E 010°44'0 0.0
2015-Apr-01 08:21N 59°55' E 010°44'0 0.0
2015-Apr-01 07:33N 59°55' E 010°44'1 0.6
2015-Apr-01 06:29N 59°54' E 010°43'0 0.0
2015-Apr-01 05:32N 59°54' E 010°43'2 1.5
2015-Apr-01 04:17N 59°53' E 010°40'1 1.1
2015-Apr-01 03:30N 59°52' E 010°39'0 0.0
2015-Apr-01 02:18N 59°52' E 010°39'3 0.8
2015-Mar-31 22:33N 59°55' E 010°44'0 0.0
2015-Mar-31 21:33N 59°55' E 010°44'0 0.0
2015-Mar-31 20:33N 59°55' E 010°44'0 0.0
2015-Mar-31 19:33N 59°54' E 010°44'0 0.1
2015-Mar-31 18:32N 59°55' E 010°44'0 0.1
2015-Mar-31 17:33N 59°55' E 010°44'0 0.1
2015-Mar-31 16:33N 59°55' E 010°44'0 0.0
2015-Mar-31 15:33N 59°55' E 010°44'0 0.0
2015-Mar-31 14:33N 59°55' E 010°44'0 0.0
2015-Mar-31 13:33N 59°55' E 010°44'0 0.0
2015-Mar-31 12:33N 59°55' E 010°44'0 0.0
2015-Mar-31 11:33N 59°55' E 010°44'0 0.0
2015-Mar-31 10:33N 59°55' E 010°44'0 0.0
2015-Mar-31 09:33N 59°55' E 010°44'0 0.0
2015-Mar-31 08:33N 59°55' E 010°44'0 0.0
2015-Mar-31 07:33N 59°55' E 010°44'0 0.0
2015-Mar-31 06:33N 59°55' E 010°44'0 0.0
2015-Mar-31 05:33N 59°55' E 010°44'3 2.9
2015-Mar-31 04:33N 59°53' E 010°40'0 0.3
2015-Mar-31 03:30N 59°52' E 010°39'0 0.0
2015-Mar-31 02:31N 59°52' E 010°39'0 0.0
2015-Mar-31 01:19N 59°52' E 010°39'0 0.0
2015-Mar-31 00:04N 59°52' E 010°39'0 0.0
2015-Mar-30 23:31N 59°52' E 010°39'3 3.2
2015-Mar-30 22:33N 59°55' E 010°44'0 0.0
2015-Mar-30 21:33N 59°55' E 010°44'0 0.1
2015-Mar-30 20:33N 59°55' E 010°44'0 0.1
2015-Mar-30 19:33N 59°55' E 010°44'0 0.0
2015-Mar-30 18:33N 59°55' E 010°44'0 0.0
2015-Mar-30 17:33N 59°55' E 010°44'0 0.0
2015-Mar-30 16:33N 59°55' E 010°44'0 0.0
2015-Mar-30 15:33N 59°55' E 010°44'0 0.1
2015-Mar-30 14:19N 59°55' E 010°44'0 0.0
2015-Mar-30 13:22N 59°55' E 010°44'0 0.0
2015-Mar-30 12:31N 59°55' E 010°44'0 0.0
2015-Mar-30 11:19N 59°55' E 010°44'0 0.0
2015-Mar-30 10:22N 59°55' E 010°44'0 0.0
2015-Mar-30 09:25N 59°55' E 010°44'0 0.0
2015-Mar-30 08:25N 59°55' E 010°44'0 0.0
2015-Mar-30 07:25N 59°55' E 010°44'0 0.0
2015-Mar-30 06:28N 59°55' E 010°44'0 0.0
2015-Mar-30 05:28N 59°55' E 010°44'0 0.0
2015-Mar-30 04:28N 59°55' E 010°44'0 0.0
2015-Mar-30 03:31N 59°55' E 010°44'0 0.0
2015-Mar-30 02:31N 59°55' E 010°44'0 0.0
2015-Mar-30 01:31N 59°55' E 010°44'0 0.0
2015-Mar-30 00:31N 59°55' E 010°44'0 0.0
2015-Mar-29 23:31N 59°55' E 010°44'0 0.0
2015-Mar-29 22:22N 59°55' E 010°44'0 0.0
2015-Mar-29 21:22N 59°55' E 010°44'0 0.0
2015-Mar-29 20:22N 59°55' E 010°44'0 0.0
2015-Mar-29 19:22N 59°55' E 010°44'0 0.0
2015-Mar-29 18:25N 59°55' E 010°44'0 0.0
2015-Mar-29 17:25N 59°55' E 010°44'0 0.0
2015-Mar-29 16:28N 59°55' E 010°44'0 0.0
2015-Mar-29 15:28N 59°55' E 010°44'0 0.0
2015-Mar-29 14:28N 59°55' E 010°44'0 0.0
2015-Mar-29 13:31N 59°55' E 010°44'0 0.0
2015-Mar-29 12:31N 59°55' E 010°44'0 0.0
2015-Mar-29 11:31N 59°55' E 010°44'0 0.0
2015-Mar-29 10:31N 59°55' E 010°44'0 0.0
2015-Mar-29 09:31N 59°55' E 010°44'0 0.0
2015-Mar-29 08:22N 59°55' E 010°44'0 0.0
2015-Mar-29 07:22N 59°55' E 010°44'0 0.0
2015-Mar-29 06:22N 59°55' E 010°44'0 0.0
2015-Mar-29 05:22N 59°55' E 010°44'0 0.0
2015-Mar-29 04:25N 59°55' E 010°44'0 0.0
2015-Mar-29 03:25N 59°55' E 010°44'0 0.0
2015-Mar-29 02:28N 59°55' E 010°44'0 0.0
2015-Mar-29 01:28N 59°55' E 010°44'0 0.0
2015-Mar-29 00:28N 59°55' E 010°44'0 0.0
2015-Mar-28 23:31N 59°55' E 010°44'0 0.0
2015-Mar-28 22:16N 59°55' E 010°44'0 0.0
2015-Mar-28 21:31N 59°55' E 010°44'0 0.0
2015-Mar-28 20:31N 59°55' E 010°44'0 0.0
2015-Mar-28 19:31N 59°55' E 010°44'0 0.0
2015-Mar-28 18:31N 59°55' E 010°44'0 0.0
2015-Mar-28 17:19N 59°55' E 010°44'0 0.0
2015-Mar-28 16:22N 59°55' E 010°44'0 0.0
2015-Mar-28 14:10N 59°55' E 010°44'0 0.0
2015-Mar-28 13:28N 59°55' E 010°44'0 0.0
2015-Mar-28 12:13N 59°55' E 010°44'0 0.0
2015-Mar-28 11:28N 59°55' E 010°44'0 0.0
2015-Mar-28 10:31N 59°55' E 010°44'0 0.0
2015-Mar-28 09:31N 59°55' E 010°44'0 0.0
2015-Mar-28 08:31N 59°55' E 010°44'0 0.0
2015-Mar-28 07:16N 59°55' E 010°44'0 0.0
2015-Mar-28 06:31N 59°55' E 010°44'0 0.0
2015-Mar-28 05:31N 59°55' E 010°44'0 0.0
2015-Mar-28 04:31N 59°55' E 010°44'0 0.0
2015-Mar-28 03:22N 59°55' E 010°44'0 0.0
2015-Mar-28 02:19N 59°55' E 010°44'0 0.0
2015-Mar-28 01:25N 59°55' E 010°44'0 0.0
2015-Mar-28 00:10N 59°55' E 010°44'0 0.0
2015-Mar-27 23:28N 59°55' E 010°44'0 0.0
2015-Mar-27 22:25N 59°55' E 010°44'0 0.0
2015-Mar-27 21:28N 59°55' E 010°44'0 0.0
2015-Mar-27 20:31N 59°55' E 010°44'0 0.0
2015-Mar-27 19:31N 59°55' E 010°44'0 0.0
2015-Mar-27 18:28N 59°55' E 010°44'0 0.0
2015-Mar-27 17:31N 59°55' E 010°44'3 3.0
2015-Mar-27 16:32N 59°53' E 010°40'0 0.2
2015-Mar-27 15:30N 59°53' E 010°40'0 0.3
2015-Mar-27 14:32N 59°52' E 010°40'3 3.0
2015-Mar-27 13:33N 59°55' E 010°44'0 0.0
2015-Mar-27 12:24N 59°55' E 010°44'0 0.0
2015-Mar-27 11:33N 59°55' E 010°44'0 0.0
2015-Mar-27 10:33N 59°55' E 010°44'0 0.0
2015-Mar-27 09:33N 59°55' E 010°44'0 0.1
2015-Mar-27 08:33N 59°55' E 010°44'1 1.1
2015-Mar-27 07:33N 59°54' E 010°42'0 0.1
2015-Mar-27 06:33N 59°54' E 010°42'1 1.3
2015-Mar-27 05:33N 59°55' E 010°44'0 0.0
2015-Mar-27 04:29N 59°55' E 010°44'0 0.0
2015-Mar-27 03:29N 59°55' E 010°44'0 0.0
2015-Mar-27 02:29N 59°55' E 010°44'0 0.0
2015-Mar-27 01:05N 59°55' E 010°44'0 0.0
2015-Mar-27 00:05N 59°55' E 010°44'0 0.0
2015-Mar-26 23:23N 59°55' E 010°44'0 0.0
2015-Mar-26 22:08N 59°55' E 010°44'0 0.0
2015-Mar-26 21:26N 59°55' E 010°44'0 0.0
2015-Mar-26 20:23N 59°55' E 010°44'0 0.0
2015-Mar-26 19:26N 59°55' E 010°44'0 0.0
2015-Mar-26 18:31N 59°55' E 010°44'0 0.0
2015-Mar-26 17:33N 59°55' E 010°44'0 0.0
2015-Mar-26 16:33N 59°55' E 010°44'0 0.1
2015-Mar-26 15:32N 59°55' E 010°44'0 0.0
2015-Mar-26 14:33N 59°55' E 010°44'0 0.0
2015-Mar-26 13:33N 59°55' E 010°44'0 0.0
2015-Mar-26 12:32N 59°55' E 010°44'0 0.1
2015-Mar-26 11:33N 59°55' E 010°44'0 0.0
2015-Mar-26 10:22N 59°55' E 010°44'0 0.0
2015-Mar-26 09:25N 59°55' E 010°44'0 0.0
2015-Mar-26 08:30N 59°55' E 010°44'0 0.1
2015-Mar-26 07:33N 59°55' E 010°44'0 0.1
2015-Mar-26 06:33N 59°55' E 010°44'0 0.1
2015-Mar-26 05:33N 59°55' E 010°44'3 2.7
2015-Mar-26 04:24N 59°52' E 010°39'0 0.0
2015-Mar-26 03:24N 59°52' E 010°39'0 0.0
2015-Mar-26 02:24N 59°52' E 010°39'0 0.0
2015-Mar-26 01:12N 59°52' E 010°39'0 0.0
2015-Mar-26 00:30N 59°52' E 010°39'0 0.0
2015-Mar-25 23:12N 59°52' E 010°39'0 0.0
2015-Mar-25 20:30N 59°52' E 010°39'0 0.0
2015-Mar-25 19:30N 59°52' E 010°39'0 0.0
2015-Mar-25 18:06N 59°52' E 010°39'1 0.5
2015-Mar-25 16:28N 59°53' E 010°41'0 0.5
2015-Mar-25 15:31N 59°53' E 010°40'0 0.0
2015-Mar-25 14:31N 59°53' E 010°40'3 2.5
2015-Mar-25 13:24N 59°55' E 010°44'0 0.0
2015-Mar-25 12:27N 59°55' E 010°44'0 0.0
2015-Mar-25 11:29N 59°55' E 010°44'0 0.1
2015-Mar-25 10:33N 59°54' E 010°44'0 0.0
2015-Mar-25 09:33N 59°55' E 010°44'0 0.1
2015-Mar-25 08:33N 59°55' E 010°44'1 1.3
2015-Mar-25 07:33N 59°54' E 010°42'0 0.0
2015-Mar-25 06:33N 59°54' E 010°42'1 1.3
2015-Mar-25 05:32N 59°55' E 010°44'0 0.0
2015-Mar-25 04:32N 59°55' E 010°44'0 0.0
2015-Mar-25 03:20N 59°55' E 010°44'0 0.0
2015-Mar-25 02:32N 59°55' E 010°44'0 0.0
2015-Mar-25 01:32N 59°55' E 010°44'0 0.0
2015-Mar-25 00:32N 59°55' E 010°44'0 0.0
2015-Mar-24 23:23N 59°55' E 010°44'0 0.0
2015-Mar-24 22:20N 59°55' E 010°44'0 0.0
2015-Mar-24 21:26N 59°55' E 010°44'0 0.0
2015-Mar-24 20:11N 59°55' E 010°44'0 0.0
2015-Mar-24 19:29N 59°55' E 010°44'0 0.0
2015-Mar-24 18:29N 59°55' E 010°44'0 0.1
2015-Mar-24 17:34N 59°55' E 010°44'0 0.1
2015-Mar-24 16:33N 59°54' E 010°44'0 0.1
2015-Mar-24 15:33N 59°55' E 010°44'0 0.0
2015-Mar-24 14:33N 59°55' E 010°44'0 0.0
2015-Mar-24 13:34N 59°55' E 010°44'0 0.0
2015-Mar-24 12:32N 59°55' E 010°44'0 0.1
2015-Mar-24 11:33N 59°55' E 010°44'1 0.5
2015-Mar-24 10:22N 59°54' E 010°43'0 0.1
2015-Mar-24 09:33N 59°54' E 010°42'1 0.7
2015-Mar-24 08:32N 59°55' E 010°44'0 0.1
2015-Mar-24 07:33N 59°55' E 010°44'0 0.1
2015-Mar-24 06:33N 59°55' E 010°44'0 0.1
2015-Mar-24 05:33N 59°54' E 010°44'3 0.4
2015-Mar-23 21:28N 59°52' E 010°39'0 0.1
2015-Mar-23 16:32N 59°52' E 010°40'0 0.2
2015-Mar-23 15:31N 59°53' E 010°40'0 0.3
2015-Mar-23 14:29N 59°53' E 010°40'3 2.6
2015-Mar-23 13:31N 59°55' E 010°44'0 0.0
2015-Mar-23 12:19N 59°55' E 010°44'0 0.0
2015-Mar-23 11:31N 59°55' E 010°44'0 0.1
2015-Mar-23 10:34N 59°54' E 010°44'0 0.0
2015-Mar-23 09:34N 59°55' E 010°44'0 0.0
2015-Mar-23 08:33N 59°55' E 010°44'1 1.1
2015-Mar-23 07:33N 59°54' E 010°42'0 0.0
2015-Mar-23 06:33N 59°54' E 010°42'1 1.0
2015-Mar-23 05:26N 59°55' E 010°44'0 0.0
2015-Mar-23 04:29N 59°55' E 010°44'0 0.0
2015-Mar-23 02:32N 59°55' E 010°44'0 0.0
2015-Mar-23 01:32N 59°55' E 010°44'0 0.0
2015-Mar-23 00:32N 59°55' E 010°44'0 0.0
2015-Mar-22 23:32N 59°55' E 010°44'0 0.0
2015-Mar-22 22:32N 59°55' E 010°44'0 0.0
2015-Mar-22 21:32N 59°55' E 010°44'0 0.0
2015-Mar-22 20:32N 59°55' E 010°44'0 0.0
2015-Mar-22 19:23N 59°55' E 010°44'0 0.0
2015-Mar-22 18:26N 59°55' E 010°44'0 0.0
2015-Mar-22 17:26N 59°55' E 010°44'0 0.0
2015-Mar-22 16:08N 59°55' E 010°44'0 0.0
2015-Mar-22 15:29N 59°55' E 010°44'0 0.0
2015-Mar-22 14:29N 59°55' E 010°44'0 0.1
2015-Mar-22 13:33N 59°55' E 010°44'0 0.1
2015-Mar-22 12:33N 59°54' E 010°44'  
Track history (hours):
 
Tides and Currents Weather Stations Pressure Air Temp Water Temp Dewpoint Dewpoint Depression Visibility Wind Speed Wind Dir Waves Ship Positions

Kongen

Last reported at 2015-Apr-01 12:30 UTC. Time now 2015-Apr-01 13:14 UTC.
Position N 59°55' E 010°44'.

Length 50 m; draft 3.2 m.

Type: Passenger vessel. MMSI: 258509000.

Date/timePositionNaut miles runAvg speedWind from/ knotsBaromVisibWave heightAir tempDewpointWater temp
2015-Apr-01 12:30N 59°55' E 010°44'0 0.0
2015-Apr-01 11:33N 59°55' E 010°44'0 0.0
2015-Apr-01 10:30N 59°55' E 010°44'0 0.0
2015-Apr-01 09:21N 59°55' E 010°44'0 0.0
2015-Apr-01 08:21N 59°55' E 010°44'0 0.0
2015-Apr-01 07:33N 59°55' E 010°44'1 0.6
2015-Apr-01 06:29N 59°54' E 010°43'0 0.0
2015-Apr-01 05:32N 59°54' E 010°43'2 1.5
2015-Apr-01 04:17N 59°53' E 010°40'1 1.1
2015-Apr-01 03:30N 59°52' E 010°39'0 0.0
2015-Apr-01 02:18N 59°52' E 010°39'3 0.8
2015-Mar-31 22:33N 59°55' E 010°44'0 0.0
2015-Mar-31 21:33N 59°55' E 010°44'0 0.0
2015-Mar-31 20:33N 59°55' E 010°44'0 0.0
2015-Mar-31 19:33N 59°54' E 010°44'0 0.1
2015-Mar-31 18:32N 59°55' E 010°44'0 0.1
2015-Mar-31 17:33N 59°55' E 010°44'0 0.1
2015-Mar-31 16:33N 59°55' E 010°44'0 0.0
2015-Mar-31 15:33N 59°55' E 010°44'0 0.0
2015-Mar-31 14:33N 59°55' E 010°44'0 0.0
2015-Mar-31 13:33N 59°55' E 010°44'0 0.0
2015-Mar-31 12:33N 59°55' E 010°44'0 0.0
2015-Mar-31 11:33N 59°55' E 010°44'0 0.0
2015-Mar-31 10:33N 59°55' E 010°44'0 0.0
2015-Mar-31 09:33N 59°55' E 010°44'0 0.0
2015-Mar-31 08:33N 59°55' E 010°44'0 0.0
2015-Mar-31 07:33N 59°55' E 010°44'0 0.0
2015-Mar-31 06:33N 59°55' E 010°44'0 0.0
2015-Mar-31 05:33N 59°55' E 010°44'3 2.9
2015-Mar-31 04:33N 59°53' E 010°40'0 0.3
2015-Mar-31 03:30N 59°52' E 010°39'0 0.0
2015-Mar-31 02:31N 59°52' E 010°39'0 0.0
2015-Mar-31 01:19N 59°52' E 010°39'0 0.0
2015-Mar-31 00:04N 59°52' E 010°39'0 0.0
2015-Mar-30 23:31N 59°52' E 010°39'3 3.2
2015-Mar-30 22:33N 59°55' E 010°44'0 0.0
2015-Mar-30 21:33N 59°55' E 010°44'0 0.1
2015-Mar-30 20:33N 59°55' E 010°44'0 0.1
2015-Mar-30 19:33N 59°55' E 010°44'0 0.0
2015-Mar-30 18:33N 59°55' E 010°44'0 0.0
2015-Mar-30 17:33N 59°55' E 010°44'0 0.0
2015-Mar-30 16:33N 59°55' E 010°44'0 0.0
2015-Mar-30 15:33N 59°55' E 010°44'0 0.1
2015-Mar-30 14:19N 59°55' E 010°44'0 0.0
2015-Mar-30 13:22N 59°55' E 010°44'0 0.0
2015-Mar-30 12:31N 59°55' E 010°44'0 0.0
2015-Mar-30 11:19N 59°55' E 010°44'0 0.0
2015-Mar-30 10:22N 59°55' E 010°44'0 0.0
2015-Mar-30 09:25N 59°55' E 010°44'0 0.0
2015-Mar-30 08:25N 59°55' E 010°44'0 0.0
2015-Mar-30 07:25N 59°55' E 010°44'0 0.0
2015-Mar-30 06:28N 59°55' E 010°44'0 0.0
2015-Mar-30 05:28N 59°55' E 010°44'0 0.0
2015-Mar-30 04:28N 59°55' E 010°44'0 0.0
2015-Mar-30 03:31N 59°55' E 010°44'0 0.0
2015-Mar-30 02:31N 59°55' E 010°44'0 0.0
2015-Mar-30 01:31N 59°55' E 010°44'0 0.0
2015-Mar-30 00:31N 59°55' E 010°44'0 0.0
2015-Mar-29 23:31N 59°55' E 010°44'0 0.0
2015-Mar-29 22:22N 59°55' E 010°44'0 0.0
2015-Mar-29 21:22N 59°55' E 010°44'0 0.0
2015-Mar-29 20:22N 59°55' E 010°44'0 0.0
2015-Mar-29 19:22N 59°55' E 010°44'0 0.0
2015-Mar-29 18:25N 59°55' E 010°44'0 0.0
2015-Mar-29 17:25N 59°55' E 010°44'0 0.0
2015-Mar-29 16:28N 59°55' E 010°44'0 0.0
2015-Mar-29 15:28N 59°55' E 010°44'0 0.0
2015-Mar-29 14:28N 59°55' E 010°44'0 0.0
2015-Mar-29 13:31N 59°55' E 010°44'0 0.0
2015-Mar-29 12:31N 59°55' E 010°44'0 0.0
2015-Mar-29 11:31N 59°55' E 010°44'0 0.0
2015-Mar-29 10:31N 59°55' E 010°44'0 0.0
2015-Mar-29 09:31N 59°55' E 010°44'0 0.0
2015-Mar-29 08:22N 59°55' E 010°44'0 0.0
2015-Mar-29 07:22N 59°55' E 010°44'0 0.0
2015-Mar-29 06:22N 59°55' E 010°44'0 0.0
2015-Mar-29 05:22N 59°55' E 010°44'0 0.0
2015-Mar-29 04:25N 59°55' E 010°44'0 0.0
2015-Mar-29 03:25N 59°55' E 010°44'0 0.0
2015-Mar-29 02:28N 59°55' E 010°44'0 0.0
2015-Mar-29 01:28N 59°55' E 010°44'0 0.0
2015-Mar-29 00:28N 59°55' E 010°44'0 0.0
2015-Mar-28 23:31N 59°55' E 010°44'0 0.0
2015-Mar-28 22:16N 59°55' E 010°44'0 0.0
2015-Mar-28 21:31N 59°55' E 010°44'0 0.0
2015-Mar-28 20:31N 59°55' E 010°44'0 0.0
2015-Mar-28 19:31N 59°55' E 010°44'0 0.0
2015-Mar-28 18:31N 59°55' E 010°44'0 0.0
2015-Mar-28 17:19N 59°55' E 010°44'0 0.0
2015-Mar-28 16:22N 59°55' E 010°44'0 0.0
2015-Mar-28 14:10N 59°55' E 010°44'0 0.0
2015-Mar-28 13:28N 59°55' E 010°44'0 0.0
2015-Mar-28 12:13N 59°55' E 010°44'0 0.0
2015-Mar-28 11:28N 59°55' E 010°44'0 0.0
2015-Mar-28 10:31N 59°55' E 010°44'0 0.0
2015-Mar-28 09:31N 59°55' E 010°44'0 0.0
2015-Mar-28 08:31N 59°55' E 010°44'0 0.0
2015-Mar-28 07:16N 59°55' E 010°44'0 0.0
2015-Mar-28 06:31N 59°55' E 010°44'0 0.0
2015-Mar-28 05:31N 59°55' E 010°44'0 0.0
2015-Mar-28 04:31N 59°55' E 010°44'0 0.0
2015-Mar-28 03:22N 59°55' E 010°44'0 0.0
2015-Mar-28 02:19N 59°55' E 010°44'0 0.0
2015-Mar-28 01:25N 59°55' E 010°44'0 0.0
2015-Mar-28 00:10N 59°55' E 010°44'0 0.0
2015-Mar-27 23:28N 59°55' E 010°44'0 0.0
2015-Mar-27 22:25N 59°55' E 010°44'0 0.0
2015-Mar-27 21:28N 59°55' E 010°44'0 0.0
2015-Mar-27 20:31N 59°55' E 010°44'0 0.0
2015-Mar-27 19:31N 59°55' E 010°44'0 0.0
2015-Mar-27 18:28N 59°55' E 010°44'0 0.0
2015-Mar-27 17:31N 59°55' E 010°44'3 3.0
2015-Mar-27 16:32N 59°53' E 010°40'0 0.2
2015-Mar-27 15:30N 59°53' E 010°40'0 0.3
2015-Mar-27 14:32N 59°52' E 010°40'3 3.0
2015-Mar-27 13:33N 59°55' E 010°44'0 0.0
2015-Mar-27 12:24N 59°55' E 010°44'0 0.0
2015-Mar-27 11:33N 59°55' E 010°44'0 0.0
2015-Mar-27 10:33N 59°55' E 010°44'0 0.0
2015-Mar-27 09:33N 59°55' E 010°44'0 0.1
2015-Mar-27 08:33N 59°55' E 010°44'1 1.1
2015-Mar-27 07:33N 59°54' E 010°42'0 0.1
2015-Mar-27 06:33N 59°54' E 010°42'1 1.3
2015-Mar-27 05:33N 59°55' E 010°44'0 0.0
2015-Mar-27 04:29N 59°55' E 010°44'0 0.0
2015-Mar-27 03:29N 59°55' E 010°44'0 0.0
2015-Mar-27 02:29N 59°55' E 010°44'0 0.0
2015-Mar-27 01:05N 59°55' E 010°44'0 0.0
2015-Mar-27 00:05N 59°55' E 010°44'0 0.0
2015-Mar-26 23:23N 59°55' E 010°44'0 0.0
2015-Mar-26 22:08N 59°55' E 010°44'0 0.0
2015-Mar-26 21:26N 59°55' E 010°44'0 0.0
2015-Mar-26 20:23N 59°55' E 010°44'0 0.0
2015-Mar-26 19:26N 59°55' E 010°44'0 0.0
2015-Mar-26 18:31N 59°55' E 010°44'0 0.0
2015-Mar-26 17:33N 59°55' E 010°44'0 0.0
2015-Mar-26 16:33N 59°55' E 010°44'0 0.1
2015-Mar-26 15:32N 59°55' E 010°44'0 0.0
2015-Mar-26 14:33N 59°55' E 010°44'0 0.0
2015-Mar-26 13:33N 59°55' E 010°44'0 0.0
2015-Mar-26 12:32N 59°55' E 010°44'0 0.1
2015-Mar-26 11:33N 59°55' E 010°44'0 0.0
2015-Mar-26 10:22N 59°55' E 010°44'0 0.0
2015-Mar-26 09:25N 59°55' E 010°44'0 0.0
2015-Mar-26 08:30N 59°55' E 010°44'0 0.1
2015-Mar-26 07:33N 59°55' E 010°44'0 0.1
2015-Mar-26 06:33N 59°55' E 010°44'0 0.1
2015-Mar-26 05:33N 59°55' E 010°44'3 2.7
2015-Mar-26 04:24N 59°52' E 010°39'0 0.0
2015-Mar-26 03:24N 59°52' E 010°39'0 0.0
2015-Mar-26 02:24N 59°52' E 010°39'0 0.0
2015-Mar-26 01:12N 59°52' E 010°39'0 0.0
2015-Mar-26 00:30N 59°52' E 010°39'0 0.0
2015-Mar-25 23:12N 59°52' E 010°39'0 0.0
2015-Mar-25 20:30N 59°52' E 010°39'0 0.0
2015-Mar-25 19:30N 59°52' E 010°39'0 0.0
2015-Mar-25 18:06N 59°52' E 010°39'1 0.5
2015-Mar-25 16:28N 59°53' E 010°41'0 0.5
2015-Mar-25 15:31N 59°53' E 010°40'0 0.0
2015-Mar-25 14:31N 59°53' E 010°40'3 2.5
2015-Mar-25 13:24N 59°55' E 010°44'0 0.0
2015-Mar-25 12:27N 59°55' E 010°44'0 0.0
2015-Mar-25 11:29N 59°55' E 010°44'0 0.1
2015-Mar-25 10:33N 59°54' E 010°44'0 0.0
2015-Mar-25 09:33N 59°55' E 010°44'0 0.1
2015-Mar-25 08:33N 59°55' E 010°44'1 1.3
2015-Mar-25 07:33N 59°54' E 010°42'0 0.0
2015-Mar-25 06:33N 59°54' E 010°42'1 1.3
2015-Mar-25 05:32N 59°55' E 010°44'0 0.0
2015-Mar-25 04:32N 59°55' E 010°44'0 0.0
2015-Mar-25 03:20N 59°55' E 010°44'0 0.0
2015-Mar-25 02:32N 59°55' E 010°44'0 0.0
2015-Mar-25 01:32N 59°55' E 010°44'0 0.0
2015-Mar-25 00:32N 59°55' E 010°44'0 0.0
2015-Mar-24 23:23N 59°55' E 010°44'0 0.0
2015-Mar-24 22:20N 59°55' E 010°44'0 0.0
2015-Mar-24 21:26N 59°55' E 010°44'0 0.0
2015-Mar-24 20:11N 59°55' E 010°44'0 0.0
2015-Mar-24 19:29N 59°55' E 010°44'0 0.0
2015-Mar-24 18:29N 59°55' E 010°44'0 0.1
2015-Mar-24 17:34N 59°55' E 010°44'0 0.1
2015-Mar-24 16:33N 59°54' E 010°44'0 0.1
2015-Mar-24 15:33N 59°55' E 010°44'0 0.0
2015-Mar-24 14:33N 59°55' E 010°44'0 0.0
2015-Mar-24 13:34N 59°55' E 010°44'0 0.0
2015-Mar-24 12:32N 59°55' E 010°44'0 0.1
2015-Mar-24 11:33N 59°55' E 010°44'1 0.5
2015-Mar-24 10:22N 59°54' E 010°43'0 0.1
2015-Mar-24 09:33N 59°54' E 010°42'1 0.7
2015-Mar-24 08:32N 59°55' E 010°44'0 0.1
2015-Mar-24 07:33N 59°55' E 010°44'0 0.1
2015-Mar-24 06:33N 59°55' E 010°44'0 0.1
2015-Mar-24 05:33N 59°54' E 010°44'3 0.4
2015-Mar-23 21:28N 59°52' E 010°39'0 0.1
2015-Mar-23 16:32N 59°52' E 010°40'0 0.2
2015-Mar-23 15:31N 59°53' E 010°40'0 0.3
2015-Mar-23 14:29N 59°53' E 010°40'3 2.6
2015-Mar-23 13:31N 59°55' E 010°44'0 0.0
2015-Mar-23 12:19N 59°55' E 010°44'0 0.0
2015-Mar-23 11:31N 59°55' E 010°44'0 0.1
2015-Mar-23 10:34N 59°54' E 010°44'0 0.0
2015-Mar-23 09:34N 59°55' E 010°44'0 0.0
2015-Mar-23 08:33N 59°55' E 010°44'1 1.1
2015-Mar-23 07:33N 59°54' E 010°42'0 0.0
2015-Mar-23 06:33N 59°54' E 010°42'1 1.0
2015-Mar-23 05:26N 59°55' E 010°44'0 0.0
2015-Mar-23 04:29N 59°55' E 010°44'0 0.0
2015-Mar-23 02:32N 59°55' E 010°44'0 0.0
2015-Mar-23 01:32N 59°55' E 010°44'0 0.0
2015-Mar-23 00:32N 59°55' E 010°44'0 0.0
2015-Mar-22 23:32N 59°55' E 010°44'0 0.0
2015-Mar-22 22:32N 59°55' E 010°44'0 0.0
2015-Mar-22 21:32N 59°55' E 010°44'0 0.0
2015-Mar-22 20:32N 59°55' E 010°44'0 0.0
2015-Mar-22 19:23N 59°55' E 010°44'0 0.0
2015-Mar-22 18:26N 59°55' E 010°44'0 0.0
2015-Mar-22 17:26N 59°55' E 010°44'0 0.0
2015-Mar-22 16:08N 59°55' E 010°44'0 0.0
2015-Mar-22 15:29N 59°55' E 010°44'0 0.0
2015-Mar-22 14:29N 59°55' E 010°44'0 0.1
2015-Mar-22 13:33N 59°55' E 010°44'0 0.1
2015-Mar-22 12:33N 59°54' E 010°44'  

Dump ship's entire track history